Time;durP1;ratioP1;P1;durP2;ratioP2;P2;SDS_P1;SDS_P2;PMS_P1;PMS_P2;Temp;Humidity;BMP_temperature;BMP_pressure;BME280_temperature;BME280_humidity;BME280_pressure;Samples;Min_cycle;Max_cycle;Signal;HPM_P1;HPM_P2
2023/09/11 00:01:37;;;;;;;33.80;22.20;;;;;;;;;;5071269;28;20036;-56
2023/09/11 00:04:03;;;;;;;34.28;22.15;;;;;;;;;;5070799;28;20043;-55
2023/09/11 00:06:29;;;;;;;29.20;21.30;;;;;;;;;;5117973;23;20153;-60
2023/09/11 00:09:00;;;;;;;33.67;22.90;;;;;;;;;;5090292;28;20059;-62
2023/09/11 00:11:26;;;;;;;30.70;22.60;;;;;;;;;;5091000;28;20077;-61
2023/09/11 00:13:52;;;;;;;30.88;21.60;;;;;;;;;;5090864;28;20028;-57
2023/09/11 00:16:18;;;;;;;34.92;22.20;;;;;;;;;;5090404;28;20100;-63
2023/09/11 00:18:45;;;;;;;30.67;22.35;;;;;;;;;;5091166;28;20028;-61
2023/09/11 00:21:11;;;;;;;28.92;21.00;;;;;;;;;;5091026;28;20090;-61
2023/09/11 00:23:37;;;;;;;34.83;23.08;;;;;;;;;;5090972;28;20027;-62
2023/09/11 00:26:03;;;;;;;35.72;22.00;;;;;;;;;;5090362;28;20032;-61
2023/09/11 00:28:29;;;;;;;31.25;22.20;;;;;;;;;;5090790;28;20088;-60
2023/09/11 00:30:59;;;;;;;32.25;22.45;;;;;;;;;;5091224;28;20496;-62
2023/09/11 00:33:25;;;;;;;32.13;22.70;;;;;;;;;;5091267;28;20028;-62
2023/09/11 00:35:51;;;;;;;31.27;22.10;;;;;;;;;;5090049;28;20072;-61
2023/09/11 00:38:17;;;;;;;37.92;22.80;;;;;;;;;;5090801;28;20028;-60
2023/09/11 00:40:43;;;;;;;39.45;24.00;;;;;;;;;;5090836;28;20036;-62
2023/09/11 00:43:09;;;;;;;29.08;21.58;;;;;;;;;;5089536;28;20024;-62
2023/09/11 00:45:36;;;;;;;32.20;23.80;;;;;;;;;;5090025;28;20399;-62
2023/09/11 00:48:03;;;;;;;30.63;22.95;;;;;;;;;;5090789;28;20039;-62
2023/09/11 00:50:29;;;;;;;31.52;23.30;;;;;;;;;;5090879;28;20020;-60
2023/09/11 00:52:55;;;;;;;34.47;24.20;;;;;;;;;;5089469;28;20124;-62
2023/09/11 00:55:22;;;;;;;31.67;22.33;;;;;;;;;;5089926;28;20028;-61
2023/09/11 00:57:49;;;;;;;30.48;23.92;;;;;;;;;;5090855;28;20024;-61
2023/09/11 01:00:15;;;;;;;34.53;24.15;;;;;;;;;;5089968;28;20396;-62
2023/09/11 01:02:41;;;;;;;30.38;23.35;;;;;;;;;;5090860;28;20111;-63
2023/09/11 01:05:07;;;;;;;37.72;23.83;;;;;;;;;;5088301;28;20387;-62
2023/09/11 01:07:34;;;;;;;35.45;23.67;;;;;;;;;;5090715;28;20035;-62
2023/09/11 01:10:05;;;;;;;35.97;25.00;;;;;;;;;;5089273;28;20028;-61
2023/09/11 01:12:31;;;;;;;29.45;23.15;;;;;;;;;;5091102;28;20514;-63
2023/09/11 01:14:57;;;;;;;33.92;25.73;;;;;;;;;;5089929;28;20031;-61
2023/09/11 01:17:26;;;;;;;36.67;25.02;;;;;;;;;;5090585;28;20024;-61
2023/09/11 01:20:21;;;;;;;33.33;23.70;;;;;;;;;;5090607;28;20069;-60
2023/09/11 01:22:47;;;;;;;32.63;24.05;;;;;;;;;;5076700;28;20050;-63
2023/09/11 01:25:28;;;;;;;31.42;24.40;;;;;;;;;;5093163;28;20028;-62
2023/09/11 01:27:54;;;;;;;30.05;22.67;;;;;;;;;;5092878;28;20042;-65
2023/09/11 01:30:22;;;;;;;38.90;24.80;;;;;;;;;;5093949;28;20110;-62
2023/09/11 01:32:49;;;;;;;38.33;25.65;;;;;;;;;;5094249;28;20047;-62
2023/09/11 01:35:15;;;;;;;32.30;23.30;;;;;;;;;;5092273;28;20052;-59
2023/09/11 01:37:41;;;;;;;40.30;26.38;;;;;;;;;;5094279;28;20024;-61
2023/09/11 01:40:07;;;;;;;43.55;25.05;;;;;;;;;;5092932;28;20024;-61
2023/09/11 01:42:37;;;;;;;32.50;23.92;;;;;;;;;;5094193;28;20103;-60
2023/09/11 01:45:04;;;;;;;42.20;24.27;;;;;;;;;;5093103;28;20066;-62
2023/09/11 01:47:30;;;;;;;30.83;24.38;;;;;;;;;;5094007;28;20107;-62
2023/09/11 01:49:57;;;;;;;40.05;25.13;;;;;;;;;;5093783;28;20144;-62
2023/09/11 01:52:24;;;;;;;35.03;25.42;;;;;;;;;;5092587;28;20392;-62
2023/09/11 01:54:51;;;;;;;37.00;24.83;;;;;;;;;;5093207;28;20032;-63
2023/09/11 01:57:17;;;;;;;36.83;24.88;;;;;;;;;;5092475;28;20027;-61
2023/09/11 01:59:43;;;;;;;35.38;26.02;;;;;;;;;;5092857;28;20020;-61
2023/09/11 02:02:09;;;;;;;37.97;26.70;;;;;;;;;;5092768;28;20027;-61
2023/09/11 02:04:35;;;;;;;34.90;27.33;;;;;;;;;;5092773;28;20111;-64
2023/09/11 02:07:00;;;;;;;36.85;26.60;;;;;;;;;;5093326;28;20369;-60
2023/09/11 02:09:27;;;;;;;32.88;26.58;;;;;;;;;;5092145;28;20114;-62
2023/09/11 02:11:52;;;;;;;33.83;26.80;;;;;;;;;;5092270;28;20493;-59
2023/09/11 02:14:18;;;;;;;38.40;26.30;;;;;;;;;;5092918;28;20093;-60
2023/09/11 02:16:44;;;;;;;36.83;25.15;;;;;;;;;;5093345;28;20388;-62
2023/09/11 02:19:10;;;;;;;33.03;26.23;;;;;;;;;;5093714;28;20024;-61
2023/09/11 02:21:36;;;;;;;35.47;26.35;;;;;;;;;;5093415;28;20030;-60
2023/09/11 02:24:02;;;;;;;34.65;26.08;;;;;;;;;;5092720;28;20048;-58
2023/09/11 02:26:28;;;;;;;34.28;25.77;;;;;;;;;;5093023;28;20465;-63
2023/09/11 02:28:59;;;;;;;37.95;25.25;;;;;;;;;;5093174;28;20028;-61
2023/09/11 02:31:25;;;;;;;35.33;25.55;;;;;;;;;;5093423;28;20020;-62
2023/09/11 02:33:51;;;;;;;33.83;25.25;;;;;;;;;;5092874;28;20452;-61
2023/09/11 02:36:18;;;;;;;31.33;24.35;;;;;;;;;;5091325;28;20016;-62
2023/09/11 02:38:44;;;;;;;37.42;25.45;;;;;;;;;;5092943;28;20040;-60
2023/09/11 02:41:09;;;;;;;34.90;27.35;;;;;;;;;;5092815;28;20032;-60
2023/09/11 02:43:36;;;;;;;40.42;27.38;;;;;;;;;;5092835;28;20464;-62
2023/09/11 02:46:02;;;;;;;38.42;28.77;;;;;;;;;;5090514;28;20476;-62
2023/09/11 02:48:27;;;;;;;37.17;27.75;;;;;;;;;;5092256;28;20028;-63
2023/09/11 02:50:53;;;;;;;39.08;28.27;;;;;;;;;;5091291;28;20411;-61
2023/09/11 02:53:20;;;;;;;37.83;28.23;;;;;;;;;;5092847;28;20119;-60
2023/09/11 02:55:46;;;;;;;44.05;28.00;;;;;;;;;;5091853;28;20024;-62
2023/09/11 02:58:12;;;;;;;40.15;27.48;;;;;;;;;;5092592;28;20035;-63
2023/09/11 03:00:38;;;;;;;37.17;27.55;;;;;;;;;;5092453;28;20388;-60
2023/09/11 03:03:05;;;;;;;35.15;26.58;;;;;;;;;;5092601;28;20047;-61
2023/09/11 03:05:32;;;;;;;35.25;27.90;;;;;;;;;;5091651;28;20028;-60
2023/09/11 03:07:59;;;;;;;36.80;29.00;;;;;;;;;;5092244;28;20024;-63
2023/09/11 03:10:25;;;;;;;34.38;27.42;;;;;;;;;;5090746;28;20027;-62
2023/09/11 03:12:51;;;;;;;39.47;28.08;;;;;;;;;;5092313;28;20084;-58
2023/09/11 03:15:17;;;;;;;34.97;27.60;;;;;;;;;;5091026;28;20143;-62
2023/09/11 03:17:43;;;;;;;36.90;27.58;;;;;;;;;;5092394;28;20027;-60
2023/09/11 03:20:09;;;;;;;38.83;27.00;;;;;;;;;;5091875;28;20032;-63
2023/09/11 03:22:35;;;;;;;35.85;27.55;;;;;;;;;;5092040;28;20365;-60
2023/09/11 03:25:01;;;;;;;37.33;27.90;;;;;;;;;;5089649;28;20036;-62
2023/09/11 03:27:27;;;;;;;41.45;27.52;;;;;;;;;;5091967;28;20027;-62
2023/09/11 03:29:53;;;;;;;37.83;28.98;;;;;;;;;;5091740;28;20070;-61
2023/09/11 03:32:19;;;;;;;37.28;27.17;;;;;;;;;;5091818;28;20052;-62
2023/09/11 03:34:45;;;;;;;34.63;27.50;;;;;;;;;;5091077;28;20020;-63
2023/09/11 03:37:11;;;;;;;37.20;27.05;;;;;;;;;;5091376;28;20036;-63
2023/09/11 03:39:37;;;;;;;41.33;28.35;;;;;;;;;;5091919;28;20036;-63
2023/09/11 03:42:03;;;;;;;39.85;28.23;;;;;;;;;;5091366;28;20024;-63
2023/09/11 03:44:29;;;;;;;39.55;27.90;;;;;;;;;;5090259;28;20088;-62
2023/09/11 03:46:55;;;;;;;38.25;28.58;;;;;;;;;;5091206;28;20111;-62
2023/09/11 03:49:21;;;;;;;37.47;29.77;;;;;;;;;;5091174;28;20042;-61
2023/09/11 03:51:47;;;;;;;37.75;28.75;;;;;;;;;;5091264;28;20058;-62
2023/09/11 03:54:13;;;;;;;37.65;28.95;;;;;;;;;;5090474;28;20020;-62
2023/09/11 03:56:39;;;;;;;40.22;30.17;;;;;;;;;;5091420;28;20080;-62
2023/09/11 03:59:05;;;;;;;39.92;31.73;;;;;;;;;;5091279;28;20388;-61
2023/09/11 04:01:31;;;;;;;40.50;31.10;;;;;;;;;;5089457;28;20031;-62
2023/09/11 04:03:57;;;;;;;38.55;31.00;;;;;;;;;;5090828;28;20454;-60
2023/09/11 04:06:23;;;;;;;37.88;30.30;;;;;;;;;;5090614;28;20032;-58
2023/09/11 04:08:49;;;;;;;40.42;29.85;;;;;;;;;;5090648;28;20024;-58
2023/09/11 04:11:16;;;;;;;43.03;30.58;;;;;;;;;;5090975;28;20479;-61
2023/09/11 04:13:42;;;;;;;37.30;29.40;;;;;;;;;;5091021;28;20031;-59
2023/09/11 04:16:08;;;;;;;42.58;30.13;;;;;;;;;;5088621;28;20107;-59
2023/09/11 04:18:34;;;;;;;40.45;29.67;;;;;;;;;;5089508;28;20028;-59
2023/09/11 04:21:00;;;;;;;42.47;31.40;;;;;;;;;;5090977;28;20024;-61
2023/09/11 04:23:26;;;;;;;38.25;29.88;;;;;;;;;;5090834;28;20047;-61
2023/09/11 04:25:54;;;;;;;39.35;31.90;;;;;;;;;;5090013;28;20052;-60
2023/09/11 04:28:20;;;;;;;42.17;32.22;;;;;;;;;;5090615;28;20433;-59
2023/09/11 04:30:46;;;;;;;46.65;31.88;;;;;;;;;;5089474;28;20452;-60
2023/09/11 04:33:12;;;;;;;40.92;31.83;;;;;;;;;;5090956;28;20020;-56
2023/09/11 04:35:38;;;;;;;44.33;32.78;;;;;;;;;;5089861;28;20020;-62
2023/09/11 04:38:04;;;;;;;42.65;33.05;;;;;;;;;;5090983;28;20028;-60
2023/09/11 04:40:30;;;;;;;37.65;30.67;;;;;;;;;;5090519;28;20032;-61
2023/09/11 04:42:56;;;;;;;40.20;32.17;;;;;;;;;;5088888;28;20016;-58
2023/09/11 04:45:22;;;;;;;45.80;33.78;;;;;;;;;;5089637;28;20020;-58
2023/09/11 04:47:48;;;;;;;44.35;32.17;;;;;;;;;;5090335;28;20097;-60
2023/09/11 04:50:14;;;;;;;44.35;30.40;;;;;;;;;;5090451;28;20064;-62
2023/09/11 04:52:41;;;;;;;47.28;30.95;;;;;;;;;;5090344;28;20116;-62
2023/09/11 04:55:07;;;;;;;43.08;31.00;;;;;;;;;;5089685;28;20027;-59
2023/09/11 04:57:33;;;;;;;49.17;34.50;;;;;;;;;;5093400;28;20020;-61
2023/09/11 04:59:59;;;;;;;48.70;33.53;;;;;;;;;;5086684;28;20724;-62
2023/09/11 05:02:25;;;;;;;39.22;31.80;;;;;;;;;;5074036;28;20078;-60
2023/09/11 05:04:51;;;;;;;45.67;32.25;;;;;;;;;;5071683;28;20024;-60
2023/09/11 05:07:17;;;;;;;44.15;33.97;;;;;;;;;;5072220;28;20108;-62
2023/09/11 05:09:43;;;;;;;37.92;31.90;;;;;;;;;;5072068;28;20393;-60
2023/09/11 05:12:09;;;;;;;45.38;31.58;;;;;;;;;;5071142;28;20082;-60
2023/09/11 05:14:35;;;;;;;45.35;31.65;;;;;;;;;;5085469;28;20603;-60
2023/09/11 05:17:02;;;;;;;49.80;32.97;;;;;;;;;;5087727;28;20472;-61
2023/09/11 05:19:28;;;;;;;42.85;33.20;;;;;;;;;;5073045;28;20043;-62
2023/09/11 05:21:54;;;;;;;44.17;32.10;;;;;;;;;;5082095;28;20016;-55
2023/09/11 05:24:20;;;;;;;42.90;31.92;;;;;;;;;;5092476;28;20071;-61
2023/09/11 05:26:46;;;;;;;40.97;32.10;;;;;;;;;;5092844;28;20028;-61
2023/09/11 05:29:12;;;;;;;44.58;32.45;;;;;;;;;;5093014;28;20527;-61
2023/09/11 05:31:38;;;;;;;46.55;30.75;;;;;;;;;;5073111;28;20097;-63
2023/09/11 05:34:04;;;;;;;43.58;30.40;;;;;;;;;;5071334;28;20025;-58
2023/09/11 05:36:30;;;;;;;47.42;30.35;;;;;;;;;;5072384;28;20024;-62
2023/09/11 05:38:56;;;;;;;36.60;28.40;;;;;;;;;;5072438;28;20027;-60
2023/09/11 05:41:24;;;;;;;43.53;30.98;;;;;;;;;;5072662;28;20099;-59
2023/09/11 05:43:50;;;;;;;40.33;28.65;;;;;;;;;;5072766;28;20480;-59
2023/09/11 05:46:16;;;;;;;50.22;29.95;;;;;;;;;;5070281;28;20047;-57
2023/09/11 05:48:42;;;;;;;43.92;30.08;;;;;;;;;;5092888;28;20051;-60
2023/09/11 05:51:08;;;;;;;39.70;29.40;;;;;;;;;;5092650;28;20483;-65
2023/09/11 05:53:34;;;;;;;37.45;29.50;;;;;;;;;;5092573;28;20150;-55
2023/09/11 05:56:00;;;;;;;40.72;28.25;;;;;;;;;;5091718;28;20040;-61
2023/09/11 05:58:26;;;;;;;45.45;30.50;;;;;;;;;;5092409;28;20498;-62
2023/09/11 06:00:53;;;;;;;41.38;28.08;;;;;;;;;;5092189;28;20024;-62
2023/09/11 06:03:19;;;;;;;38.92;28.38;;;;;;;;;;5091801;28;20030;-62
2023/09/11 06:05:45;;;;;;;39.67;28.00;;;;;;;;;;5110467;22;20030;-54
2023/09/11 06:08:11;;;;;;;39.75;28.50;;;;;;;;;;5053652;28;20116;-55
2023/09/11 06:10:38;;;;;;;43.13;27.13;;;;;;;;;;5072161;28;20025;-54
2023/09/11 06:13:04;;;;;;;36.42;26.25;;;;;;;;;;5068793;28;20025;-56
2023/09/11 06:15:30;;;;;;;45.83;29.65;;;;;;;;;;5051496;28;20466;-56
2023/09/11 06:17:56;;;;;;;38.15;27.67;;;;;;;;;;5048053;28;20120;-55
2023/09/11 06:20:22;;;;;;;40.20;27.40;;;;;;;;;;5047732;28;20029;-53
2023/09/11 06:22:48;;;;;;;34.42;26.20;;;;;;;;;;5032552;28;20494;-55
2023/09/11 06:25:15;;;;;;;42.22;26.85;;;;;;;;;;5031354;28;20481;-54
2023/09/11 06:27:41;;;;;;;38.75;26.30;;;;;;;;;;5032139;28;20036;-55
2023/09/11 06:30:07;;;;;;;39.13;26.15;;;;;;;;;;5032118;28;20026;-56
2023/09/11 06:32:33;;;;;;;36.47;26.77;;;;;;;;;;5032227;28;20053;-51
2023/09/11 06:35:01;;;;;;;38.92;26.17;;;;;;;;;;5031393;28;20018;-52
2023/09/11 06:37:27;;;;;;;35.33;25.50;;;;;;;;;;5047396;28;20120;-51
2023/09/11 06:39:53;;;;;;;36.42;26.58;;;;;;;;;;5032296;28;20429;-56
2023/09/11 06:42:22;;;;;;;33.97;24.73;;;;;;;;;;5047350;28;20036;-56
2023/09/11 06:44:50;;;;;;;39.72;26.02;;;;;;;;;;5031100;28;20037;-52
2023/09/11 06:47:16;;;;;;;39.47;25.20;;;;;;;;;;5035881;28;20025;-56
2023/09/11 06:49:42;;;;;;;41.00;26.77;;;;;;;;;;5051651;28;20286;-55
2023/09/11 06:52:08;;;;;;;37.08;25.50;;;;;;;;;;5051641;28;20090;-54
2023/09/11 06:54:34;;;;;;;38.80;26.38;;;;;;;;;;5050925;28;20047;-51
2023/09/11 06:57:00;;;;;;;35.08;24.75;;;;;;;;;;5051689;28;20387;-54
2023/09/11 06:59:26;;;;;;;38.30;24.98;;;;;;;;;;5051525;28;20032;-52
2023/09/11 07:01:52;;;;;;;35.53;25.52;;;;;;;;;;5050212;28;20033;-51
2023/09/11 07:04:18;;;;;;;36.50;24.85;;;;;;;;;;5051203;28;20381;-56
2023/09/11 07:06:45;;;;;;;37.03;24.08;;;;;;;;;;5050990;28;20128;-57
2023/09/11 07:09:11;;;;;;;34.00;25.15;;;;;;;;;;5051495;28;20029;-55
2023/09/11 07:11:37;;;;;;;32.88;23.90;;;;;;;;;;5051580;28;20028;-53
2023/09/11 07:14:05;;;;;;;34.35;24.42;;;;;;;;;;5045926;28;20102;-52
2023/09/11 07:16:31;;;;;;;37.43;24.63;;;;;;;;;;5031264;28;20013;-53
2023/09/11 07:18:57;;;;;;;42.42;23.45;;;;;;;;;;5030629;28;20033;-55
2023/09/11 07:21:23;;;;;;;33.25;23.48;;;;;;;;;;5031337;28;20550;-56
2023/09/11 07:23:49;;;;;;;31.63;23.83;;;;;;;;;;5031160;28;20120;-55
2023/09/11 07:26:15;;;;;;;36.15;23.50;;;;;;;;;;5045782;28;20025;-53
2023/09/11 07:28:54;;;;;;;36.60;24.73;;;;;;;;;;5031425;28;20083;-53
2023/09/11 07:31:21;;;;;;;43.30;24.45;;;;;;;;;;5046481;28;20026;-56
2023/09/11 07:33:47;;;;;;;35.38;23.42;;;;;;;;;;5031209;28;20070;-53
2023/09/11 07:36:13;;;;;;;30.75;22.73;;;;;;;;;;5030397;28;20021;-56
2023/09/11 07:38:44;;;;;;;35.80;22.95;;;;;;;;;;5031083;28;20486;-54
2023/09/11 07:41:11;;;;;;;29.95;19.92;;;;;;;;;;5046296;28;20028;-53
2023/09/11 07:43:37;;;;;;;27.92;20.63;;;;;;;;;;5046201;28;20026;-52
2023/09/11 07:46:03;;;;;;;28.73;19.15;;;;;;;;;;5030328;28;20483;-54
2023/09/11 07:48:29;;;;;;;28.95;19.75;;;;;;;;;;5030919;28;20017;-57
2023/09/11 07:50:56;;;;;;;24.95;19.55;;;;;;;;;;5031055;28;20398;-55
2023/09/11 07:53:22;;;;;;;30.38;19.65;;;;;;;;;;5031079;28;20026;-53
2023/09/11 07:55:48;;;;;;;30.98;20.42;;;;;;;;;;5030094;28;20018;-51
2023/09/11 07:58:15;;;;;;;30.15;19.73;;;;;;;;;;5030811;28;20494;-55
2023/09/11 08:00:41;;;;;;;26.15;18.75;;;;;;;;;;5030527;28;20139;-54
2023/09/11 08:03:07;;;;;;;29.15;18.88;;;;;;;;;;5045838;28;20108;-54
2023/09/11 08:05:33;;;;;;;33.53;19.88;;;;;;;;;;5027823;28;20072;-54
2023/09/11 08:08:01;;;;;;;27.35;19.45;;;;;;;;;;5030672;28;20026;-54
2023/09/11 08:10:28;;;;;;;29.35;20.13;;;;;;;;;;5030640;28;20022;-53
2023/09/11 08:12:54;;;;;;;24.10;18.90;;;;;;;;;;5030618;28;20087;-54
2023/09/11 08:15:20;;;;;;;31.98;21.08;;;;;;;;;;5029768;28;20078;-51
2023/09/11 08:17:46;;;;;;;29.65;19.33;;;;;;;;;;5046469;28;20102;-52
2023/09/11 08:20:14;;;;;;;26.88;20.02;;;;;;;;;;5035254;28;20061;-52
2023/09/11 08:22:41;;;;;;;26.48;19.58;;;;;;;;;;5032365;28;20025;-55
2023/09/11 08:25:07;;;;;;;28.73;20.40;;;;;;;;;;5049720;28;20027;-53
2023/09/11 08:27:33;;;;;;;26.35;18.67;;;;;;;;;;5050431;28;20643;-51
2023/09/11 08:29:59;;;;;;;26.92;19.05;;;;;;;;;;5051819;28;20045;-56
2023/09/11 08:32:25;;;;;;;28.10;19.95;;;;;;;;;;5054621;28;20032;-51
2023/09/11 08:34:51;;;;;;;28.95;19.70;;;;;;;;;;5053808;28;20048;-59
2023/09/11 08:37:17;;;;;;;27.75;19.75;;;;;;;;;;5054528;28;20393;-54
2023/09/11 08:39:43;;;;;;;27.10;19.88;;;;;;;;;;5054442;28;20036;-49
2023/09/11 08:42:10;;;;;;;25.50;19.00;;;;;;;;;;5036501;28;20032;-50
2023/09/11 08:44:36;;;;;;;29.95;19.85;;;;;;;;;;5052636;28;20044;-54
2023/09/11 08:47:03;;;;;;;25.75;19.30;;;;;;;;;;5034609;28;20429;-54
2023/09/11 08:49:37;;;;;;;29.03;19.53;;;;;;;;;;5053949;28;20096;-52
2023/09/11 08:52:04;;;;;;;27.40;20.17;;;;;;;;;;5054687;28;20040;-54
2023/09/11 08:54:33;;;;;;;27.85;20.25;;;;;;;;;;5052888;28;20480;-51
2023/09/11 08:57:00;;;;;;;27.85;20.27;;;;;;;;;;5053744;28;20021;-48
2023/09/11 08:59:27;;;;;;;31.60;20.65;;;;;;;;;;5036313;28;20363;-56
2023/09/11 09:01:53;;;;;;;28.52;20.33;;;;;;;;;;5053790;28;20033;-54
2023/09/11 09:04:20;;;;;;;24.60;19.52;;;;;;;;;;5035206;28;20470;-56
2023/09/11 09:06:48;;;;;;;24.60;19.02;;;;;;;;;;5053537;28;20098;-51
2023/09/11 09:09:14;;;;;;;30.30;20.48;;;;;;;;;;5053680;28;20024;-52
2023/09/11 09:11:47;;;;;;;28.27;19.10;;;;;;;;;;5053823;28;20367;-54
2023/09/11 09:14:13;;;;;;;27.88;19.92;;;;;;;;;;5053063;28;20096;-54
2023/09/11 09:16:39;;;;;;;32.15;21.77;;;;;;;;;;5053554;28;20045;-51
2023/09/11 09:19:05;;;;;;;37.95;21.75;;;;;;;;;;5053623;28;20378;-53
2023/09/11 09:21:31;;;;;;;28.38;20.17;;;;;;;;;;5052341;28;20032;-57
2023/09/11 09:24:09;;;;;;;27.73;19.52;;;;;;;;;;5051860;28;20032;-57
2023/09/11 09:26:36;;;;;;;29.67;18.95;;;;;;;;;;5053466;28;20037;-54
2023/09/11 09:29:10;;;;;;;29.40;19.23;;;;;;;;;;5053182;28;20033;-56
2023/09/11 09:31:36;;;;;;;29.80;19.83;;;;;;;;;;5053417;28;20392;-54
2023/09/11 09:34:02;;;;;;;28.38;20.02;;;;;;;;;;5053037;28;20025;-54
2023/09/11 09:36:28;;;;;;;26.50;18.92;;;;;;;;;;5053582;28;20397;-54
2023/09/11 09:38:54;;;;;;;26.55;18.85;;;;;;;;;;5053324;28;20045;-52
2023/09/11 09:41:23;;;;;;;28.83;19.27;;;;;;;;;;5052862;28;20025;-50
2023/09/11 09:43:53;;;;;;;30.38;18.80;;;;;;;;;;5053065;28;20045;-51
2023/09/11 09:46:20;;;;;;;29.70;18.75;;;;;;;;;;5052637;28;20025;-52
2023/09/11 09:48:46;;;;;;;25.35;18.65;;;;;;;;;;5052572;28;20028;-55
2023/09/11 09:51:13;;;;;;;24.38;19.05;;;;;;;;;;5053210;28;20025;-57
2023/09/11 09:53:46;;;;;;;26.73;19.60;;;;;;;;;;5053016;28;20021;-54
2023/09/11 09:56:13;;;;;;;31.88;20.08;;;;;;;;;;5051669;28;20089;-53
2023/09/11 09:58:40;;;;;;;26.17;18.75;;;;;;;;;;5044251;28;20051;-54
2023/09/11 10:01:10;;;;;;;29.15;19.48;;;;;;;;;;5043067;28;20021;-47
2023/09/11 10:03:39;;;;;;;29.65;19.65;;;;;;;;;;5043377;28;20018;-51
2023/09/11 10:06:09;;;;;;;26.25;19.65;;;;;;;;;;5040589;28;20104;-56
2023/09/11 10:08:36;;;;;;;29.80;21.08;;;;;;;;;;5041770;28;20025;-56
2023/09/11 10:11:02;;;;;;;25.00;18.33;;;;;;;;;;5043964;28;20071;-56
2023/09/11 10:13:31;;;;;;;24.33;19.13;;;;;;;;;;5026038;28;20017;-55
2023/09/11 10:15:58;;;;;;;25.67;19.60;;;;;;;;;;5042305;28;20016;-53
2023/09/11 10:18:24;;;;;;;26.70;19.63;;;;;;;;;;5037793;28;20101;-56
2023/09/11 10:20:51;;;;;;;25.15;18.92;;;;;;;;;;5041753;28;20041;-56
2023/09/11 10:23:17;;;;;;;28.85;19.70;;;;;;;;;;5040271;28;20252;-53
2023/09/11 10:25:46;;;;;;;24.15;19.05;;;;;;;;;;5046565;28;20175;-55
2023/09/11 10:28:22;;;;;;;27.58;18.55;;;;;;;;;;5034402;28;20028;-56
2023/09/11 10:31:07;;;;;;;23.33;19.05;;;;;;;;;;5052246;28;20059;-55
2023/09/11 10:33:33;;;;;;;25.25;20.00;;;;;;;;;;5052086;28;20492;-56
2023/09/11 10:36:03;;;;;;;27.58;19.38;;;;;;;;;;5051322;28;20116;-55
2023/09/11 10:38:30;;;;;;;26.60;18.60;;;;;;;;;;5052071;28;20048;-54
2023/09/11 10:40:57;;;;;;;24.85;19.60;;;;;;;;;;5034862;28;20477;-56
2023/09/11 10:43:24;;;;;;;26.83;19.90;;;;;;;;;;5053513;28;20485;-54
2023/09/11 10:45:51;;;;;;;25.35;19.38;;;;;;;;;;5050976;28;20064;-52
2023/09/11 10:48:27;;;;;;;22.73;19.52;;;;;;;;;;5051604;28;20036;-56
2023/09/11 10:50:53;;;;;;;27.50;19.83;;;;;;;;;;5051635;28;20036;-55
2023/09/11 10:53:19;;;;;;;22.65;19.30;;;;;;;;;;5051674;28;20120;-52
2023/09/11 10:55:45;;;;;;;32.88;21.02;;;;;;;;;;5050793;28;20028;-53
2023/09/11 10:58:11;;;;;;;25.15;18.92;;;;;;;;;;5051621;28;20605;-54
2023/09/11 11:00:37;;;;;;;25.48;19.38;;;;;;;;;;5051551;28;20029;-54
2023/09/11 11:03:04;;;;;;;26.20;18.60;;;;;;;;;;5051178;28;20040;-52
2023/09/11 11:05:32;;;;;;;25.05;19.52;;;;;;;;;;5050374;28;20377;-53
2023/09/11 11:07:58;;;;;;;26.30;19.05;;;;;;;;;;5051438;28;20033;-53
2023/09/11 11:10:24;;;;;;;25.15;19.15;;;;;;;;;;5050347;28;20033;-55
2023/09/11 11:13:04;;;;;;;23.23;19.95;;;;;;;;;;5050284;28;20048;-55
2023/09/11 11:15:30;;;;;;;25.35;20.45;;;;;;;;;;5050118;28;20100;-53
2023/09/11 11:18:06;;;;;;;27.65;19.83;;;;;;;;;;5051329;28;20048;-57
2023/09/11 11:20:32;;;;;;;26.77;20.10;;;;;;;;;;5051131;28;20543;-55
2023/09/11 11:23:06;;;;;;;21.95;19.48;;;;;;;;;;5051208;28;20492;-57
2023/09/11 11:25:32;;;;;;;25.63;20.08;;;;;;;;;;5050388;28;20056;-56
2023/09/11 11:28:01;;;;;;;25.65;19.42;;;;;;;;;;5049741;28;20481;-54
2023/09/11 11:30:27;;;;;;;23.38;20.35;;;;;;;;;;5049875;28;20032;-50
2023/09/11 11:32:54;;;;;;;23.27;20.67;;;;;;;;;;5051383;28;20032;-54
2023/09/11 11:35:20;;;;;;;24.55;20.38;;;;;;;;;;5050579;28;20052;-57
2023/09/11 11:37:47;;;;;;;29.48;20.08;;;;;;;;;;5051013;28;20191;-53
2023/09/11 11:40:14;;;;;;;24.17;21.15;;;;;;;;;;5051020;28;20024;-54
2023/09/11 11:42:41;;;;;;;24.67;20.95;;;;;;;;;;5051057;28;20430;-51
2023/09/11 11:45:07;;;;;;;26.90;20.52;;;;;;;;;;5050399;28;20032;-55
2023/09/11 11:47:33;;;;;;;24.52;20.48;;;;;;;;;;5051044;28;20029;-55
2023/09/11 11:50:12;;;;;;;28.52;20.52;;;;;;;;;;5051197;28;20388;-52
2023/09/11 11:52:38;;;;;;;22.33;19.92;;;;;;;;;;5050908;28;20017;-55
2023/09/11 11:55:24;;;;;;;23.98;20.50;;;;;;;;;;5048459;28;20031;-57
2023/09/11 11:57:53;;;;;;;25.33;20.73;;;;;;;;;;5050342;28;20474;-54
2023/09/11 12:00:19;;;;;;;25.02;20.35;;;;;;;;;;5050692;28;20059;-56
2023/09/11 12:02:46;;;;;;;23.88;19.58;;;;;;;;;;5050806;28;20116;-51
2023/09/11 12:05:15;;;;;;;23.13;19.73;;;;;;;;;;5049719;28;20033;-52
2023/09/11 12:07:41;;;;;;;23.92;20.48;;;;;;;;;;5051918;28;20461;-54
2023/09/11 12:10:11;;;;;;;22.67;18.80;;;;;;;;;;5050862;28;20029;-51
2023/09/11 12:12:41;;;;;;;23.38;19.83;;;;;;;;;;5050401;28;20172;-54
2023/09/11 12:15:07;;;;;;;23.92;21.08;;;;;;;;;;5037071;28;20517;-53
2023/09/11 12:17:33;;;;;;;24.10;20.23;;;;;;;;;;5030693;28;20064;-52
2023/09/11 12:20:19;;;;;;;25.83;20.30;;;;;;;;;;5030922;28;20030;-55
2023/09/11 12:22:46;;;;;;;23.80;20.33;;;;;;;;;;5030435;28;20030;-51
2023/09/11 12:25:13;;;;;;;23.92;20.63;;;;;;;;;;5030055;28;20041;-54
2023/09/11 12:27:39;;;;;;;26.95;21.40;;;;;;;;;;5030709;28;20533;-55
2023/09/11 12:30:06;;;;;;;28.27;20.80;;;;;;;;;;5036183;28;20038;-57
2023/09/11 12:32:35;;;;;;;23.20;19.92;;;;;;;;;;5044045;28;20025;-49
2023/09/11 12:35:01;;;;;;;23.85;20.25;;;;;;;;;;5034925;28;20021;-52
2023/09/11 12:37:27;;;;;;;23.65;20.48;;;;;;;;;;5030527;28;20622;-55
2023/09/11 12:39:53;;;;;;;22.95;20.15;;;;;;;;;;5030813;28;20048;-54
2023/09/11 12:42:20;;;;;;;23.27;20.33;;;;;;;;;;5033741;28;20060;-54
2023/09/11 12:44:47;;;;;;;22.27;19.33;;;;;;;;;;5049981;28;20040;-51
2023/09/11 12:47:14;;;;;;;24.25;20.30;;;;;;;;;;5050287;28;20032;-49
2023/09/11 12:49:40;;;;;;;23.15;20.25;;;;;;;;;;5050234;28;20488;-57
2023/09/11 12:52:06;;;;;;;24.52;19.73;;;;;;;;;;5050349;28;20431;-56
2023/09/11 12:54:32;;;;;;;22.67;20.38;;;;;;;;;;5049776;28;20040;-54
2023/09/11 12:57:02;;;;;;;24.52;20.30;;;;;;;;;;5050262;28;20064;-57
2023/09/11 12:59:28;;;;;;;24.75;19.58;;;;;;;;;;5050344;28;20087;-55
2023/09/11 13:01:55;;;;;;;23.65;20.58;;;;;;;;;;5050292;28;20029;-53
2023/09/11 13:04:25;;;;;;;25.63;20.73;;;;;;;;;;5031019;28;20061;-52
2023/09/11 13:06:51;;;;;;;25.73;20.45;;;;;;;;;;5049902;28;20044;-53
2023/09/11 13:09:21;;;;;;;22.85;19.35;;;;;;;;;;5049825;28;20116;-51
2023/09/11 13:11:47;;;;;;;25.40;20.45;;;;;;;;;;5049562;28;20028;-57
2023/09/11 13:14:13;;;;;;;23.75;20.23;;;;;;;;;;5031187;28;20029;-55
2023/09/11 13:16:39;;;;;;;24.92;20.15;;;;;;;;;;5050061;28;20025;-55
2023/09/11 13:19:05;;;;;;;24.58;20.15;;;;;;;;;;5053481;28;20029;-53
2023/09/11 13:21:31;;;;;;;23.10;19.00;;;;;;;;;;5053463;28;20041;-52
2023/09/11 13:23:57;;;;;;;22.52;19.77;;;;;;;;;;5052307;28;20033;-50
2023/09/11 13:26:23;;;;;;;23.65;19.33;;;;;;;;;;5053091;28;20029;-52
2023/09/11 13:28:49;;;;;;;24.67;19.67;;;;;;;;;;5053071;28;20474;-54
2023/09/11 13:31:15;;;;;;;25.77;20.10;;;;;;;;;;5052778;28;20027;-52
2023/09/11 13:33:42;;;;;;;23.42;19.95;;;;;;;;;;5053171;28;20025;-54
2023/09/11 13:36:08;;;;;;;23.67;20.50;;;;;;;;;;5052584;28;20393;-54
2023/09/11 13:38:34;;;;;;;22.52;19.48;;;;;;;;;;5051872;28;20053;-53
2023/09/11 13:41:00;;;;;;;22.77;20.10;;;;;;;;;;5053248;28;20032;-54
2023/09/11 13:43:26;;;;;;;22.35;19.30;;;;;;;;;;5053486;28;20171;-54
2023/09/11 13:45:52;;;;;;;22.05;19.75;;;;;;;;;;5052565;28;20029;-52
2023/09/11 13:48:18;;;;;;;25.23;19.95;;;;;;;;;;5053281;28;20108;-55
2023/09/11 13:50:44;;;;;;;23.90;19.30;;;;;;;;;;5053192;28;20557;-54
2023/09/11 13:53:10;;;;;;;25.60;19.65;;;;;;;;;;5053738;28;20104;-51
2023/09/11 13:55:38;;;;;;;25.33;20.48;;;;;;;;;;5051786;28;20097;-56
2023/09/11 13:58:05;;;;;;;23.38;19.55;;;;;;;;;;5053133;28;20044;-55
2023/09/11 14:00:31;;;;;;;22.52;19.10;;;;;;;;;;5053161;28;20021;-56
2023/09/11 14:02:57;;;;;;;22.83;19.90;;;;;;;;;;5053391;28;20154;-52
2023/09/11 14:05:23;;;;;;;22.98;19.85;;;;;;;;;;5051738;28;20075;-51
2023/09/11 14:07:49;;;;;;;26.10;20.13;;;;;;;;;;5052702;28;20489;-56
2023/09/11 14:10:15;;;;;;;22.60;19.50;;;;;;;;;;5052770;28;20028;-53
2023/09/11 14:12:41;;;;;;;25.58;19.77;;;;;;;;;;5052687;28;20471;-55
2023/09/11 14:15:08;;;;;;;25.63;20.40;;;;;;;;;;5033602;28;20040;-53